Time;durP1;ratioP1;P1;durP2;ratioP2;P2;SDS_P1;SDS_P2;PMS_P1;PMS_P2;Temp;Humidity;BMP_temperature;BMP_pressure;BME280_temperature;BME280_humidity;BME280_pressure;Samples;Min_cycle;Max_cycle;Signal;HPM_P1;HPM_P2
2021/12/15 00:01:26;;;;;;;28.80;14.77;;;6.10;99.90;;;5.34;100.00;98522.25;4964023;28;20039;-85
2021/12/15 00:03:52;;;;;;;26.40;14.65;;;6.10;99.90;;;5.31;100.00;98519.66;4968383;28;20062;-85
2021/12/15 00:06:19;;;;;;;22.17;13.48;;;6.10;99.90;;;5.22;100.00;98503.06;4963300;28;20251;-85
2021/12/15 00:08:53;;;;;;;28.70;14.73;;;6.10;99.90;;;5.36;100.00;98522.25;4949247;28;20476;-85
2021/12/15 00:11:20;;;;;;;27.05;15.15;;;6.00;99.90;;;5.40;100.00;98534.50;4981689;23;20932;-44
2021/12/15 00:13:47;;;;;;;27.30;14.88;;;6.10;99.90;;;5.42;100.00;98532.75;5025125;22;20038;-41
2021/12/15 00:16:15;;;;;;;31.83;16.10;;;6.00;99.90;;;5.42;100.00;98530.16;5012260;28;20112;-46
2021/12/15 00:18:44;;;;;;;28.52;16.00;;;6.10;99.90;;;5.42;100.00;98529.25;5020529;28;20029;-50
2021/12/15 00:21:14;;;;;;;34.22;16.67;;;6.10;99.90;;;5.42;100.00;98530.16;5020305;28;20021;-47
2021/12/15 00:23:42;;;;;;;27.67;15.90;;;6.10;99.90;;;5.40;100.00;98520.53;5015447;28;20030;-43
2021/12/15 00:26:08;;;;;;;31.08;17.20;;;6.10;99.90;;;5.44;100.00;98533.63;5013124;28;20281;-44
2021/12/15 00:28:34;;;;;;;31.58;16.85;;;6.10;99.90;;;5.45;100.00;98539.72;5021066;28;20384;-45
2021/12/15 00:31:00;;;;;;;31.23;16.50;;;6.10;99.90;;;5.42;100.00;98534.47;5024379;28;20040;-43
2021/12/15 00:33:26;;;;;;;35.60;17.15;;;6.10;99.90;;;5.46;100.00;98537.13;5018848;28;20472;-44
2021/12/15 00:35:54;;;;;;;32.70;17.23;;;6.10;99.90;;;5.42;100.00;98535.38;5013266;28;20176;-43
2021/12/15 00:38:19;;;;;;;31.30;16.85;;;6.10;99.90;;;5.48;100.00;98532.75;5015587;28;20025;-43
2021/12/15 00:40:45;;;;;;;34.88;17.35;;;6.20;99.90;;;5.49;100.00;98537.13;5019071;28;20049;-43
2021/12/15 00:43:11;;;;;;;36.00;17.80;;;6.10;99.90;;;5.50;100.00;98540.59;5019332;28;20790;-42
2021/12/15 00:45:37;;;;;;;33.30;17.50;;;6.10;99.90;;;5.47;100.00;98535.38;5021256;28;20037;-49
2021/12/15 00:48:03;;;;;;;33.47;17.13;;;6.10;99.90;;;5.39;100.00;98529.25;5017590;28;20087;-46
2021/12/15 00:50:34;;;;;;;27.67;16.17;;;6.10;99.90;;;5.43;100.00;98539.72;5020990;28;20021;-46
2021/12/15 00:53:01;;;;;;;24.08;14.07;;;6.10;99.90;;;5.42;100.00;98539.72;5015604;28;20119;-45
2021/12/15 00:55:28;;;;;;;28.02;16.23;;;6.10;99.90;;;5.41;100.00;98541.47;5012577;28;20030;-45
2021/12/15 00:57:55;;;;;;;31.17;15.70;;;6.00;99.90;;;5.39;100.00;98544.97;5014399;28;20029;-48
2021/12/15 01:00:28;;;;;;;29.45;15.15;;;6.10;99.90;;;5.37;100.00;98542.34;5013020;28;20026;-43
2021/12/15 01:02:56;;;;;;;29.42;14.77;;;6.10;99.90;;;5.38;100.00;98549.28;5011705;28;20477;-45
2021/12/15 01:05:26;;;;;;;31.70;16.98;;;6.00;99.90;;;5.33;100.00;98544.06;5015139;28;20494;-43
2021/12/15 01:07:53;;;;;;;29.73;15.65;;;6.00;99.90;;;5.27;100.00;98548.41;5018211;28;20040;-46
2021/12/15 01:10:33;;;;;;;31.23;15.40;;;5.90;99.90;;;5.29;100.00;98550.19;5013706;28;20450;-45
2021/12/15 01:21:05;;;;;;;31.48;15.70;;;5.90;99.90;;;5.24;100.00;98549.28;5016591;28;20036;-48
2021/12/15 01:23:33;;;;;;;28.67;15.98;;;5.90;99.90;;;5.27;100.00;98545.78;5022600;28;20104;-47
2021/12/15 01:26:19;;;;;;;28.17;15.48;;;5.90;99.90;;;5.12;100.00;98515.25;5016319;28;20562;-45
2021/12/15 01:28:45;;;;;;;28.20;15.23;;;5.90;99.90;;;5.27;100.00;98536.19;5011658;28;20057;-47
2021/12/15 01:31:11;;;;;;;31.33;16.58;;;5.90;99.90;;;5.32;100.00;98546.69;5019482;28;20384;-46
2021/12/15 01:33:39;;;;;;;30.00;16.08;;;6.00;99.90;;;5.35;100.00;98549.31;5020598;28;20032;-45
2021/12/15 01:36:06;;;;;;;32.40;16.40;;;6.00;99.90;;;5.38;100.00;98548.44;5019094;28;20503;-44
2021/12/15 01:38:35;;;;;;;28.85;15.73;;;6.00;99.90;;;5.39;100.00;98556.28;5011277;28;20036;-47
2021/12/15 01:41:05;;;;;;;25.58;16.00;;;6.10;99.90;;;5.40;100.00;98554.53;5016123;28;20112;-44
2021/12/15 01:43:51;;;;;;;28.90;16.67;;;6.10;99.90;;;5.44;100.00;98565.03;5024554;28;20053;-42
2021/12/15 01:49:14;;;;;;;26.55;14.93;;;6.10;99.90;;;5.37;100.00;98550.19;5021246;28;20040;-43
2021/12/15 01:51:40;;;;;;;25.70;14.95;;;6.10;99.90;;;5.40;100.00;98558.06;5021091;28;20033;-44
2021/12/15 01:54:06;;;;;;;25.17;15.05;;;6.10;99.90;;;5.40;100.00;98557.16;5016273;28;20052;-48
2021/12/15 01:56:33;;;;;;;25.95;15.00;;;6.10;99.90;;;5.37;100.00;98546.72;5014273;28;20053;-48
2021/12/15 01:58:59;;;;;;;28.13;16.15;;;6.10;99.90;;;5.40;100.00;98551.91;5021159;28;20394;-47
2021/12/15 02:01:25;;;;;;;28.52;15.55;;;6.10;99.90;;;5.41;100.00;98557.16;5019877;28;20061;-46
2021/12/15 02:03:52;;;;;;;25.75;14.70;;;6.10;99.90;;;5.41;100.00;98559.78;5019797;28;20128;-43
2021/12/15 02:06:18;;;;;;;26.48;14.23;;;6.10;99.90;;;5.37;100.00;98560.66;5019286;28;20053;-43
2021/12/15 02:08:45;;;;;;;26.35;15.50;;;6.00;99.90;;;5.38;100.00;98551.91;5020266;28;20513;-43
2021/12/15 02:11:13;;;;;;;27.63;14.55;;;6.00;99.90;;;5.35;100.00;98551.94;5018468;28;20144;-44
2021/12/15 02:13:39;;;;;;;33.97;16.23;;;6.00;99.90;;;5.32;100.00;98546.69;5016517;28;20029;-47
2021/12/15 02:16:06;;;;;;;27.67;15.07;;;6.00;99.90;;;5.33;100.00;98557.16;5021388;28;20185;-45
2021/12/15 02:18:36;;;;;;;30.05;15.18;;;6.00;99.90;;;5.33;100.00;98548.44;5020692;28;20029;-46
2021/12/15 02:21:10;;;;;;;24.75;14.02;;;6.00;99.90;;;5.32;100.00;98546.69;5020802;28;20522;-45
2021/12/15 02:23:43;;;;;;;21.17;13.07;;;6.00;99.90;;;5.29;100.00;98549.28;5017879;28;20026;-45
2021/12/15 02:26:14;;;;;;;23.85;14.18;;;6.00;99.90;;;5.25;100.00;98548.41;5017918;28;20503;-47
2021/12/15 02:28:46;;;;;;;22.97;13.57;;;5.90;99.90;;;5.24;100.00;98541.44;5021251;28;20033;-46
2021/12/15 02:31:19;;;;;;;24.13;12.70;;;5.90;99.90;;;5.26;100.00;98549.28;5020251;28;20041;-45
2021/12/15 02:34:01;;;;;;;25.33;14.02;;;5.90;99.90;;;5.26;100.00;98554.53;5022342;28;20103;-47
2021/12/15 02:39:12;;;;;;;24.98;12.40;;;5.90;99.90;;;5.20;100.00;98552.75;5014702;28;20098;-43
2021/12/15 02:41:39;;;;;;;22.35;12.73;;;5.90;99.90;;;5.20;100.00;98551.88;5020797;28;20026;-42
2021/12/15 02:44:13;;;;;;;25.55;13.98;;;5.80;99.90;;;5.19;100.00;98560.56;5022602;28;20689;-45
2021/12/15 02:46:40;;;;;;;21.80;12.50;;;5.80;99.90;;;5.20;100.00;98559.72;5022719;28;20029;-43
2021/12/15 02:49:08;;;;;;;26.48;14.68;;;5.90;99.90;;;5.14;100.00;98550.97;5017261;28;20040;-45
2021/12/15 02:51:36;;;;;;;23.50;13.52;;;5.80;99.90;;;5.14;100.00;98544.88;5018690;28;20100;-45
2021/12/15 02:54:07;;;;;;;23.05;13.45;;;5.80;99.90;;;5.10;100.00;98544.00;5017034;28;20134;-44
2021/12/15 02:56:33;;;;;;;23.08;13.82;;;5.80;99.90;;;5.09;100.00;98542.25;5015346;28;20038;-42
2021/12/15 02:59:03;;;;;;;24.05;14.80;;;5.80;99.90;;;5.03;100.00;98537.00;5024746;28;20483;-43
2021/12/15 03:04:25;;;;;;;23.10;12.95;;;5.70;99.90;;;5.05;100.00;98537.88;5022855;28;20025;-44
2021/12/15 03:07:11;;;;;;;22.85;13.45;;;5.70;99.90;;;5.00;100.00;98537.00;5023509;28;20106;-45
2021/12/15 03:15:29;;;;;;;27.27;15.10;;;5.70;99.90;;;5.09;100.00;98549.22;5020019;28;20123;-43
2021/12/15 03:18:08;;;;;;;23.77;13.68;;;5.80;99.90;;;5.06;100.00;98560.56;5023110;28;20431;-47
2021/12/15 03:20:48;;;;;;;25.88;13.98;;;5.70;99.90;;;5.06;100.00;98565.78;5021712;28;20033;-43
2021/12/15 03:23:27;;;;;;;27.25;15.20;;;5.70;99.90;;;5.10;100.00;98564.06;5026782;28;20025;-44
2021/12/15 03:25:54;;;;;;;25.40;14.13;;;5.70;99.90;;;5.10;100.00;98569.28;5024378;28;20033;-43
2021/12/15 03:36:38;;;;;;;28.98;15.07;;;5.80;99.90;;;5.12;100.00;98557.09;5020344;28;20120;-45
2021/12/15 03:39:09;;;;;;;27.75;14.02;;;5.80;99.90;;;5.11;100.00;98561.44;5018973;28;20029;-44
2021/12/15 03:41:35;;;;;;;25.70;13.68;;;5.80;99.90;;;5.13;100.00;98564.06;5013989;28;20030;-40
2021/12/15 03:44:03;;;;;;;23.98;12.93;;;5.80;99.90;;;5.13;100.00;98558.81;5026409;28;20078;-43
2021/12/15 03:46:30;;;;;;;22.55;12.55;;;5.80;99.90;;;5.18;100.00;98569.31;5026510;28;20037;-42
2021/12/15 03:48:56;;;;;;;25.13;13.95;;;5.80;99.90;;;5.22;100.00;98573.66;5028080;28;20029;-42
2021/12/15 03:51:22;;;;;;;22.92;14.00;;;5.80;99.90;;;5.20;100.00;98565.81;5019343;28;20640;-47
2021/12/15 03:53:48;;;;;;;23.58;13.40;;;5.80;99.90;;;5.21;100.00;98570.19;5022153;28;20350;-42
2021/12/15 03:56:15;;;;;;;26.23;14.63;;;5.90;99.90;;;5.22;100.00;98573.66;5015769;28;20064;-44
2021/12/15 03:58:42;;;;;;;24.08;13.30;;;5.90;99.90;;;5.22;100.00;98560.59;5025062;28;20463;-42
2021/12/15 04:01:14;;;;;;;25.02;14.50;;;5.90;99.90;;;5.21;100.00;98567.56;5021594;28;20025;-45
2021/12/15 04:03:44;;;;;;;21.50;12.68;;;5.90;99.90;;;5.22;100.00;98571.06;5022154;28;20326;-46
2021/12/15 04:06:19;;;;;;;24.98;13.70;;;5.90;99.90;;;5.20;100.00;98575.41;5022007;28;20033;-44
2021/12/15 04:08:44;;;;;;;21.20;12.98;;;5.90;99.90;;;5.24;100.00;98574.53;5016265;28;20033;-45
2021/12/15 04:11:14;;;;;;;19.38;11.63;;;5.90;99.90;;;5.26;100.00;98575.44;5025363;28;20034;-42
2021/12/15 04:13:41;;;;;;;22.30;12.20;;;5.90;99.90;;;5.30;100.00;98577.19;5018815;28;20026;-45
2021/12/15 04:16:14;;;;;;;17.77;11.23;;;5.90;99.90;;;5.28;100.00;98571.09;5017273;28;20148;-46
2021/12/15 04:18:40;;;;;;;16.83;10.38;;;5.90;99.90;;;5.22;100.00;98557.97;5023261;28;20066;-44
2021/12/15 04:21:07;;;;;;;19.70;10.32;;;5.90;99.90;;;5.30;100.00;98569.34;5027446;28;20029;-46
2021/12/15 04:23:33;;;;;;;16.95;10.63;;;6.00;99.90;;;5.32;100.00;98575.47;5018705;28;20025;-46
2021/12/15 04:25:59;;;;;;;16.27;10.27;;;5.90;99.90;;;5.31;100.00;98573.69;5020336;28;20530;-44
2021/12/15 04:28:35;;;;;;;18.42;11.02;;;6.00;99.90;;;5.31;100.00;98571.09;5024078;28;20052;-46
2021/12/15 04:31:11;;;;;;;18.08;10.50;;;6.00;99.90;;;5.26;100.00;98559.75;5014791;28;20034;-47
2021/12/15 04:34:05;;;;;;;18.55;11.27;;;5.90;99.90;;;5.32;100.00;98576.31;5015367;28;20108;-45
2021/12/15 04:36:35;;;;;;;20.75;11.75;;;6.00;99.90;;;5.32;100.00;98575.47;5016375;28;20033;-43
2021/12/15 04:39:05;;;;;;;20.38;11.82;;;6.00;99.90;;;5.32;100.00;98580.69;5017166;28;20017;-46
2021/12/15 04:41:31;;;;;;;20.08;12.02;;;6.00;99.90;;;5.31;100.00;98582.44;5016581;28;20029;-46
2021/12/15 04:43:59;;;;;;;18.05;11.43;;;6.00;99.90;;;5.31;100.00;98586.78;5010863;28;20021;-46
2021/12/15 04:46:35;;;;;;;19.15;12.25;;;5.90;99.90;;;5.31;100.00;98577.22;5013825;28;20057;-42
2021/12/15 04:49:05;;;;;;;20.67;12.60;;;5.90;99.90;;;5.25;100.00;98573.69;5020441;28;20551;-46
2021/12/15 04:51:32;;;;;;;19.73;11.73;;;6.00;99.90;;;5.31;100.00;98582.44;5018764;28;20056;-43
2021/12/15 04:53:58;;;;;;;20.15;11.80;;;5.90;99.90;;;5.30;100.00;98582.44;5018312;28;20087;-43
2021/12/15 04:56:25;;;;;;;19.42;12.13;;;6.00;99.90;;;5.31;100.00;98573.69;5017203;28;20065;-47
2021/12/15 04:58:54;;;;;;;22.88;12.95;;;5.90;99.90;;;5.34;100.00;98576.31;5022965;28;20036;-42
2021/12/15 05:01:21;;;;;;;22.08;12.65;;;6.00;99.90;;;5.36;100.00;98587.66;5018223;28;20065;-43
2021/12/15 05:03:47;;;;;;;24.23;13.00;;;6.00;99.90;;;5.37;100.00;98583.34;5022416;28;20061;-46
2021/12/15 05:06:14;;;;;;;21.65;12.57;;;6.00;99.90;;;5.36;100.00;98582.44;5021064;28;20045;-43
2021/12/15 05:08:41;;;;;;;17.65;11.48;;;6.00;99.90;;;5.39;100.00;98581.59;5019482;28;20483;-46
2021/12/15 05:11:09;;;;;;;20.50;12.30;;;6.00;99.90;;;5.39;100.00;98582.44;5022829;28;20036;-48
2021/12/15 05:13:36;;;;;;;20.80;11.70;;;6.00;99.90;;;5.41;100.00;98588.56;5024108;28;20033;-46
2021/12/15 05:16:04;;;;;;;18.73;11.30;;;6.00;99.90;;;5.39;100.00;98587.69;5020901;28;20036;-48
2021/12/15 05:18:31;;;;;;;22.25;12.68;;;6.00;99.90;;;5.38;100.00;98587.69;5013013;28;20108;-45
2021/12/15 05:20:58;;;;;;;19.75;12.80;;;6.00;99.90;;;5.37;100.00;98586.81;5016781;28;20076;-48
2021/12/15 05:23:29;;;;;;;19.90;12.40;;;6.00;99.90;;;5.41;100.00;98587.69;5020339;28;20244;-44
2021/12/15 05:25:56;;;;;;;20.55;12.23;;;6.00;99.90;;;5.41;100.00;98593.78;5020284;28;20037;-47
2021/12/15 05:28:22;;;;;;;21.85;12.82;;;6.00;99.90;;;5.46;100.00;98599.91;5021945;28;20049;-46
2021/12/15 05:30:48;;;;;;;19.80;11.60;;;6.00;99.90;;;5.42;100.00;98597.28;5020277;28;20098;-46
2021/12/15 05:33:14;;;;;;;18.13;11.50;;;6.10;99.90;;;5.41;100.00;98596.41;5022573;28;20041;-47
2021/12/15 05:35:40;;;;;;;18.15;10.98;;;6.00;99.90;;;5.42;100.00;98598.16;5016914;28;20045;-44
2021/12/15 05:38:08;;;;;;;18.33;10.82;;;6.00;99.90;;;5.43;100.00;98605.13;5021964;28;20075;-46
2021/12/15 05:40:35;;;;;;;19.40;10.65;;;6.00;99.90;;;5.40;100.00;98599.00;5021666;28;20033;-50
2021/12/15 05:43:03;;;;;;;19.08;11.23;;;6.00;99.90;;;5.35;100.00;98597.28;5021498;28;20045;-43
2021/12/15 05:45:33;;;;;;;20.67;10.75;;;6.00;99.90;;;5.37;100.00;98599.91;5024968;28;20017;-44
2021/12/15 05:48:00;;;;;;;18.70;11.23;;;6.00;99.90;;;5.29;100.00;98602.50;5024085;28;20024;-46
2021/12/15 05:50:28;;;;;;;15.05;8.98;;;6.00;99.90;;;5.34;100.00;98613.81;5019003;28;20025;-41
2021/12/15 05:52:55;;;;;;;16.20;9.68;;;6.00;99.90;;;5.32;100.00;98612.09;5019342;28;20075;-45
2021/12/15 05:55:21;;;;;;;19.25;10.38;;;6.00;99.90;;;5.33;100.00;98606.00;5020779;28;20090;-46
2021/12/15 05:57:47;;;;;;;14.75;9.55;;;6.00;99.90;;;5.34;100.00;98620.81;5020762;28;20049;-43
2021/12/15 06:00:25;;;;;;;13.82;9.25;;;5.90;99.90;;;5.31;100.00;98615.56;5013025;28;20056;-45
2021/12/15 06:02:53;;;;;;;14.98;8.68;;;6.00;99.90;;;5.33;100.00;98625.16;5025270;28;20030;-43
2021/12/15 06:05:19;;;;;;;14.25;8.77;;;6.00;99.90;;;5.30;100.00;98619.06;5034027;28;20354;-47
2021/12/15 06:07:45;;;;;;;12.90;9.02;;;6.00;99.90;;;5.29;100.00;98617.28;5025269;28;20079;-43
2021/12/15 06:10:16;;;;;;;11.38;7.35;;;6.00;99.90;;;5.35;100.00;98633.91;5018921;28;20052;-45
2021/12/15 06:12:43;;;;;;;10.63;7.03;;;6.00;99.90;;;5.32;100.00;98625.16;5021520;28;20038;-47
2021/12/15 06:15:09;;;;;;;13.23;8.23;;;6.00;99.90;;;5.36;100.00;98632.13;5024312;28;20033;-43
2021/12/15 06:17:35;;;;;;;12.90;7.68;;;6.00;99.90;;;5.35;100.00;98636.50;5021069;28;20033;-44
2021/12/15 06:20:03;;;;;;;10.73;7.28;;;6.00;99.90;;;5.30;100.00;98619.06;5017115;28;20032;-42
2021/12/15 06:22:31;;;;;;;12.05;7.93;;;6.00;99.90;;;5.36;100.00;98629.53;5034214;28;20033;-44
2021/12/15 06:24:57;;;;;;;10.68;7.25;;;6.00;99.90;;;5.31;100.00;98632.16;5017653;28;20033;-44
2021/12/15 06:27:24;;;;;;;9.82;7.07;;;6.00;99.90;;;5.33;100.00;98634.78;5023080;28;20506;-44
2021/12/15 06:29:52;;;;;;;9.55;6.40;;;6.00;99.90;;;5.35;100.00;98630.41;5023582;28;20095;-47
2021/12/15 06:32:20;;;;;;;8.93;6.30;;;6.00;99.90;;;5.35;100.00;98631.28;5020339;28;20021;-45
2021/12/15 06:34:46;;;;;;;8.63;6.18;;;6.00;99.90;;;5.36;100.00;98642.59;5020387;28;20316;-46
2021/12/15 06:37:13;;;;;;;9.52;6.35;;;6.00;99.90;;;5.35;100.00;98633.03;5015900;28;20495;-44
2021/12/15 06:39:39;;;;;;;8.18;5.82;;;6.00;99.90;;;5.43;100.00;98639.16;5020450;28;20025;-43
2021/12/15 06:42:06;;;;;;;10.20;6.43;;;6.00;99.90;;;5.39;100.00;98642.63;5019912;28;20058;-47
2021/12/15 06:44:33;;;;;;;8.95;6.07;;;6.00;99.90;;;5.33;100.00;98640.00;5017020;28;20048;-47
2021/12/15 07:00:38;;;;;;;12.45;8.05;;;6.00;99.90;;;5.36;100.00;98655.69;5017570;28;20369;-47
2021/12/15 07:03:04;;;;;;;11.38;7.28;;;6.00;99.90;;;5.39;100.00;98654.84;5014386;28;20037;-43
2021/12/15 07:05:32;;;;;;;11.38;7.53;;;6.00;99.90;;;5.39;100.00;98660.94;5022507;28;20112;-44
2021/12/15 07:08:02;;;;;;;12.35;8.57;;;6.00;99.90;;;5.28;100.00;98652.19;5022828;28;20479;-45
2021/12/15 07:10:33;;;;;;;12.27;8.32;;;6.00;99.90;;;5.38;100.00;98669.66;5036874;28;20029;-42
2021/12/15 07:12:59;;;;;;;11.77;8.02;;;6.00;99.90;;;5.35;100.00;98662.66;5023310;28;20029;-43
2021/12/15 07:15:26;;;;;;;12.02;7.22;;;6.00;99.90;;;5.37;100.00;98677.50;5023086;28;20120;-43
2021/12/15 07:18:00;;;;;;;10.88;7.65;;;6.00;99.90;;;5.37;100.00;98681.00;5020376;28;20036;-44
2021/12/15 07:20:41;;;;;;;13.85;8.48;;;6.00;99.90;;;5.35;100.00;98686.22;5023470;28;20121;-45
2021/12/15 07:23:16;;;;;;;13.55;9.07;;;6.00;99.90;;;5.33;100.00;98684.47;5021706;28;20062;-45
2021/12/15 07:25:46;;;;;;;13.75;8.50;;;6.00;99.90;;;5.33;100.00;98689.72;5025458;28;20395;-45
2021/12/15 07:28:13;;;;;;;15.85;9.45;;;6.00;99.90;;;5.31;100.00;98696.66;5024940;28;20066;-43
2021/12/15 07:30:41;;;;;;;17.15;10.07;;;6.00;99.90;;;5.32;100.00;98696.66;5021505;28;20021;-46
2021/12/15 07:33:09;;;;;;;18.08;10.70;;;6.00;99.90;;;5.33;100.00;98700.16;5017185;28;20025;-44
2021/12/15 07:35:36;;;;;;;15.70;10.68;;;6.00;99.90;;;5.34;100.00;98687.06;5019784;28;20302;-47
2021/12/15 07:38:04;;;;;;;16.73;10.90;;;6.00;99.90;;;5.38;100.00;98703.66;5026219;28;20540;-43
2021/12/15 07:40:30;;;;;;;12.93;9.23;;;6.00;99.90;;;5.37;100.00;98704.53;5019509;28;20554;-42
2021/12/15 07:43:09;;;;;;;15.48;9.43;;;6.00;99.90;;;5.35;100.00;98698.44;5027474;28;20040;-40
2021/12/15 07:45:51;;;;;;;15.85;9.27;;;6.00;99.90;;;5.37;100.00;98714.13;5021298;28;20078;-46
2021/12/15 07:48:20;;;;;;;16.80;10.17;;;6.00;99.90;;;5.28;100.00;98715.84;5020910;28;20072;-42
2021/12/15 07:50:50;;;;;;;16.38;9.55;;;6.00;99.90;;;5.30;100.00;98713.22;5025848;28;20306;-43
2021/12/15 07:53:18;;;;;;;16.55;10.35;;;5.90;99.90;;;5.31;100.00;98717.56;5024361;28;20029;-43
2021/12/15 07:55:45;;;;;;;15.95;10.48;;;6.00;99.90;;;5.33;100.00;98721.97;5020337;28;20034;-43
2021/12/15 07:58:11;;;;;;;14.02;9.05;;;6.00;99.90;;;5.32;100.00;98714.09;5021004;28;20033;-46
2021/12/15 08:00:41;;;;;;;15.63;10.30;;;6.00;99.90;;;5.33;100.00;98723.72;5022321;28;20037;-45
2021/12/15 08:03:07;;;;;;;12.90;9.38;;;6.00;99.90;;;5.34;100.00;98725.44;5022416;28;20025;-46
2021/12/15 08:05:36;;;;;;;15.45;9.73;;;6.00;99.90;;;5.39;100.00;98722.88;5024481;28;20572;-42
2021/12/15 08:08:02;;;;;;;13.68;9.57;;;6.00;99.90;;;5.35;100.00;98725.47;5024438;28;20513;-45
2021/12/15 08:10:28;;;;;;;15.75;10.05;;;6.00;99.90;;;5.46;100.00;98725.50;5019503;28;20064;-44
2021/12/15 08:12:54;;;;;;;13.30;8.68;;;6.10;99.90;;;5.46;100.00;98730.75;5041954;28;20030;-44
2021/12/15 08:15:20;;;;;;;13.80;8.43;;;6.10;99.90;;;5.40;100.00;98724.59;5026507;28;20083;-45
2021/12/15 08:17:51;;;;;;;13.77;8.60;;;6.10;99.90;;;5.47;100.00;98737.75;5022578;28;20045;-47
2021/12/15 08:20:20;;;;;;;14.48;9.00;;;6.10;99.90;;;5.48;100.00;98728.16;5017929;28;20067;-44
2021/12/15 08:22:46;;;;;;;14.63;9.75;;;6.10;99.90;;;5.45;100.00;98713.28;5017259;28;20035;-47
2021/12/15 08:25:16;;;;;;;12.98;8.52;;;6.10;99.90;;;5.50;100.00;98721.16;5018500;28;20030;-43
2021/12/15 08:27:45;;;;;;;14.35;8.65;;;6.20;99.90;;;5.50;100.00;98729.88;5025684;28;20096;-46
2021/12/15 08:30:19;;;;;;;14.02;8.40;;;6.20;99.90;;;5.50;100.00;98739.47;5013075;28;20763;-45
2021/12/15 08:32:51;;;;;;;12.85;7.82;;;6.20;99.90;;;5.50;100.00;98729.03;5024193;28;20037;-42
2021/12/15 08:35:20;;;;;;;10.45;7.00;;;6.20;99.90;;;5.53;100.00;98737.75;5021166;28;20035;-46
2021/12/15 08:37:46;;;;;;;13.32;8.13;;;6.20;99.90;;;5.54;100.00;98744.75;5022282;28;20041;-41
2021/12/15 08:40:16;;;;;;;11.73;7.72;;;6.20;99.90;;;5.58;100.00;98743.03;5016147;28;20029;-47
2021/12/15 08:42:42;;;;;;;10.60;7.03;;;6.30;99.90;;;5.62;100.00;98746.53;5024063;28;20033;-48
2021/12/15 08:45:09;;;;;;;11.00;7.22;;;6.30;99.90;;;5.55;100.00;98737.78;5016985;28;20025;-45
2021/12/15 08:47:35;;;;;;;13.40;7.47;;;6.30;99.90;;;5.66;100.00;98753.53;5019336;28;20037;-45
2021/12/15 08:50:01;;;;;;;10.15;6.38;;;6.30;99.90;;;5.70;100.00;98756.13;5023798;28;20025;-40
2021/12/15 08:52:27;;;;;;;9.63;6.47;;;6.30;99.90;;;5.71;100.00;98763.13;5024648;28;20431;-43
2021/12/15 08:54:53;;;;;;;8.38;5.97;;;6.40;99.90;;;5.77;100.00;98761.41;5025030;28;20038;-44
2021/12/15 08:57:19;;;;;;;8.15;5.10;;;6.40;99.90;;;5.85;100.00;98760.59;5019705;28;20475;-43
2021/12/15 08:59:44;;;;;;;10.63;5.60;;;6.40;99.90;;;5.80;100.00;98751.84;5023704;28;20068;-43
2021/12/15 09:02:11;;;;;;;7.35;5.03;;;6.50;99.90;;;5.87;100.00;98750.13;5022626;28;20549;-46
2021/12/15 09:04:37;;;;;;;8.65;5.60;;;6.50;99.90;;;5.79;100.00;98744.84;5027706;28;20081;-43
2021/12/15 09:07:03;;;;;;;7.85;5.45;;;6.50;99.90;;;5.77;100.00;98741.34;5021392;28;20037;-40
2021/12/15 09:09:29;;;;;;;8.27;5.82;;;6.50;99.90;;;5.79;100.00;98744.84;5022788;28;20033;-45
2021/12/15 09:11:55;;;;;;;9.30;5.38;;;6.50;99.90;;;5.83;100.00;98753.56;5020357;28;20029;-45
2021/12/15 09:14:21;;;;;;;7.80;4.90;;;6.50;99.90;;;5.91;100.00;98750.13;5028598;28;20056;-44
2021/12/15 09:16:52;;;;;;;8.75;5.63;;;6.50;99.90;;;5.94;100.00;98749.28;5018202;28;20049;-45
2021/12/15 09:19:18;;;;;;;8.77;4.78;;;6.50;99.90;;;5.95;100.00;98751.00;5040945;28;20029;-45
2021/12/15 09:21:44;;;;;;;6.63;4.82;;;6.60;99.90;;;6.01;100.00;98755.41;5015629;28;20036;-43
2021/12/15 09:24:13;;;;;;;7.90;4.90;;;6.60;99.90;;;6.06;100.00;98754.56;5021877;28;20098;-44
2021/12/15 09:26:39;;;;;;;7.40;4.80;;;6.70;99.90;;;6.01;100.00;98755.41;5020711;28;20021;-45
2021/12/15 09:29:06;;;;;;;6.50;4.72;;;6.70;99.90;;;6.06;100.00;98765.03;5020590;28;20076;-45
2021/12/15 09:31:33;;;;;;;9.38;4.60;;;6.70;99.90;;;6.06;100.00;98766.78;5018005;28;20402;-43
2021/12/15 09:34:00;;;;;;;9.25;5.65;;;6.70;99.90;;;6.06;100.00;98765.03;5028213;28;20044;-44
2021/12/15 09:36:27;;;;;;;6.68;5.13;;;6.70;99.90;;;6.10;100.00;98766.81;5019614;28;20281;-43
2021/12/15 09:39:06;;;;;;;7.03;4.65;;;6.70;99.90;;;6.07;100.00;98766.78;5015870;28;20500;-42
2021/12/15 09:41:33;;;;;;;7.18;4.88;;;6.70;99.90;;;6.12;100.00;98772.06;5013040;28;20579;-43
2021/12/15 09:44:05;;;;;;;7.57;4.53;;;6.80;99.90;;;6.09;100.00;98774.66;5021153;28;20026;-44
2021/12/15 09:46:40;;;;;;;6.57;4.22;;;6.70;99.90;;;6.10;100.00;98779.00;5017176;28;20068;-43
2021/12/15 09:56:25;;;;;;;6.82;4.18;;;6.70;99.90;;;6.18;100.00;98782.53;5019119;28;20044;-43
2021/12/15 10:03:11;;;;;;;5.22;3.50;;;6.90;99.90;;;6.24;100.00;98758.09;5018435;28;20111;-43
2021/12/15 10:11:20;;;;;;;5.07;3.60;;;6.90;99.90;;;6.22;100.00;98765.09;5021640;28;20105;-43
2021/12/15 10:19:37;;;;;;;5.10;4.05;;;6.90;99.90;;;6.19;100.00;98770.31;5019999;28;20068;-44
2021/12/15 10:22:44;;;;;;;5.45;3.47;;;6.90;99.90;;;6.18;100.00;98771.19;5019023;28;20085;-44
2021/12/15 10:25:20;;;;;;;9.23;4.00;;;6.80;99.90;;;6.17;100.00;98770.28;4998446;28;20079;-46
2021/12/15 10:28:01;;;;;;;5.30;4.20;;;6.80;99.90;;;6.23;100.00;98753.75;5016999;28;20045;-47
2021/12/15 10:30:43;;;;;;;7.47;4.50;;;6.80;99.90;;;6.23;100.00;98765.09;5017305;28;20037;-47
2021/12/15 10:33:16;;;;;;;6.90;3.27;;;6.80;99.90;;;6.20;100.00;98758.97;5034081;28;20419;-43
2021/12/15 10:35:57;;;;;;;5.03;3.33;;;6.80;99.90;;;6.20;100.00;98757.22;5018248;28;20743;-44
2021/12/15 10:38:40;;;;;;;5.20;3.60;;;6.80;99.90;;;6.23;100.00;98762.47;5022063;28;20390;-43
2021/12/15 10:41:23;;;;;;;5.88;2.70;;;6.80;99.90;;;6.16;100.00;98763.34;5019218;28;20021;-43
2021/12/15 10:43:53;;;;;;;4.82;3.50;;;6.80;99.90;;;6.08;100.00;98759.81;5020102;28;20040;-43
2021/12/15 10:46:39;;;;;;;6.25;4.10;;;6.80;99.90;;;6.12;100.00;98761.59;5018415;28;20304;-41
2021/12/15 10:49:21;;;;;;;7.97;4.55;;;6.70;99.90;;;6.05;100.00;98754.56;5020591;28;20104;-45
2021/12/15 10:51:55;;;;;;;6.03;4.13;;;6.70;99.90;;;6.08;100.00;98757.19;5016633;28;20052;-44
2021/12/15 10:54:31;;;;;;;10.10;5.30;;;6.70;99.90;;;6.01;100.00;98748.44;5015538;28;20037;-44
2021/12/15 10:57:15;;;;;;;8.35;6.05;;;6.70;99.90;;;6.23;100.00;98746.75;5018657;28;20026;-44
2021/12/15 10:59:53;;;;;;;9.20;6.25;;;6.70;99.90;;;6.01;100.00;98737.09;5015200;28;20040;-43
2021/12/15 11:02:32;;;;;;;8.32;5.65;;;6.70;99.90;;;6.08;100.00;98749.31;5025240;28;20201;-43
2021/12/15 11:05:15;;;;;;;8.32;5.40;;;6.70;99.90;;;6.08;100.00;98751.94;5024772;28;20029;-43
2021/12/15 11:07:52;;;;;;;7.55;5.20;;;6.70;99.90;;;6.02;100.00;98752.81;5006136;28;20030;-40
2021/12/15 11:10:31;;;;;;;8.77;4.72;;;6.70;99.90;;;6.05;100.00;98757.19;5040627;28;20055;-46
2021/12/15 11:13:07;;;;;;;8.95;5.28;;;6.70;99.90;;;6.02;100.00;98749.31;5026362;28;20079;-42
2021/12/15 11:15:43;;;;;;;7.28;5.43;;;6.70;99.90;;;6.02;100.00;98751.94;5021594;28;20067;-42
2021/12/15 11:18:18;;;;;;;7.78;5.43;;;6.70;99.90;;;6.08;100.00;98751.94;5026491;28;20514;-41
2021/12/15 11:20:59;;;;;;;8.20;5.55;;;6.70;99.90;;;6.13;100.00;98744.09;5025359;28;20037;-45
2021/12/15 11:23:29;;;;;;;7.25;5.43;;;6.70;99.90;;;6.16;100.00;98736.25;5020279;28;20046;-45
2021/12/15 11:26:03;;;;;;;6.45;4.57;;;6.80;99.90;;;6.18;100.00;98739.75;5022003;28;20034;-40
2021/12/15 11:28:33;;;;;;;6.35;5.00;;;6.80;99.90;;;6.15;100.00;98738.00;5025203;28;20035;-46
2021/12/15 11:31:06;;;;;;;6.95;4.78;;;6.80;99.90;;;6.17;100.00;98733.63;5023760;28;20037;-43
2021/12/15 11:33:51;;;;;;;8.07;5.43;;;6.80;99.90;;;6.21;100.00;98738.03;5014881;28;20060;-42
2021/12/15 11:36:35;;;;;;;8.00;5.60;;;6.80;99.90;;;6.13;100.00;98725.78;5023744;28;20029;-42